Epic Capri — 9HA2845 — position and weather

sailwx.info

Track history (hours):
 
Tides and Currents Weather Stations Pressure Air Temp Water Temp Dewpoint Dewpoint Depression Visibility Wind Speed Wind Dir Waves Ship Positions

Epic Capri

Last reported at 2017-Sep-17 08:32 UTC. Time now 2017-Sep-25 20:40 UTC.
Position N 34°47' E 023°18'.
Warning: this ship's position is 8 days out of date.

Length 99 m; draft 5.6 m.

Type: Ship (hazmat cat B). MMSI: 256325000.

Date/timePositionNaut miles runAvg speedWind from/ knotsBaromVisibWave heightAir tempDewpointWater temp
2017-Sep-17 08:32N 34°47' E 023°18'1 9.7
2017-Sep-17 08:28N 34°47' E 023°18'4 9.7
2017-Sep-17 08:01N 34°48' E 023°12'5 9.6
2017-Sep-17 07:30N 34°49' E 023°07'5 9.4
2017-Sep-17 07:00N 34°50' E 023°01'20 9.5
2017-Sep-17 04:52N 34°54' E 022°37'9 9.6
2017-Sep-17 03:55N 34°56' E 022°26'5510.2
2017-Sep-16 22:32N 35°06' E 021°20'010.4
2017-Sep-16 22:30N 35°06' E 021°19'5010.1
2017-Sep-16 17:32N 35°17' E 020°19'0 9.7
2017-Sep-16 17:31N 35°17' E 020°19'5 9.4
2017-Sep-16 16:59N 35°18' E 020°13'5 9.5
2017-Sep-16 16:29N 35°19' E 020°08'5 9.7
2017-Sep-16 15:58N 35°20' E 020°01'16810.2
2017-Sep-15 23:27N 35°53' E 016°39'510.3
2017-Sep-15 23:00N 35°54' E 016°34'3810.0
2017-Sep-15 19:13N 36°01' E 015°47'2610.7
2017-Sep-15 16:47N 36°06' E 015°16'2110.7
2017-Sep-15 14:51N 36°11' E 014°51'410.7
2017-Sep-15 14:27N 36°12' E 014°46'510.8
2017-Sep-15 14:00N 36°14' E 014°40'510.9
2017-Sep-15 13:30N 36°16' E 014°34'610.8
2017-Sep-15 13:00N 36°18' E 014°28'510.9
2017-Sep-15 12:30N 36°20' E 014°21'510.9
2017-Sep-15 12:01N 36°21' E 014°15'611.2
2017-Sep-15 11:30N 36°23' E 014°08'511.1
2017-Sep-15 11:01N 36°25' E 014°02'510.8
2017-Sep-15 10:31N 36°27' E 013°55'510.7
2017-Sep-15 10:00N 36°29' E 013°49'510.6
2017-Sep-15 09:30N 36°31' E 013°43'510.5
2017-Sep-15 09:00N 36°33' E 013°37'710.5
2017-Sep-15 08:19N 36°35' E 013°28'410.7
2017-Sep-15 07:56N 36°36' E 013°24'510.7
2017-Sep-15 07:30N 36°38' E 013°18'610.6
2017-Sep-15 06:56N 36°40' E 013°11'510.6
2017-Sep-15 06:30N 36°41' E 013°06'510.6
2017-Sep-15 05:59N 36°43' E 012°60'510.7
2017-Sep-15 05:31N 36°45' E 012°53'710.7
2017-Sep-15 04:51N 36°47' E 012°45'410.8
2017-Sep-15 04:30N 36°49' E 012°41'610.9
2017-Sep-15 03:58N 36°51' E 012°34'510.8
2017-Sep-15 03:29N 36°53' E 012°28'510.8
2017-Sep-15 03:00N 36°54' E 012°22'510.7
2017-Sep-15 02:29N 36°56' E 012°15'510.6
2017-Sep-15 02:00N 36°58' E 012°09'2210.4
2017-Sep-14 23:53N 37°07' E 011°44'410.3
2017-Sep-14 23:30N 37°09' E 011°40'510.2
2017-Sep-14 23:00N 37°11' E 011°34'  
2017-Sep-11 19:17N 36°01' W 005°13'413.6
2017-Sep-11 19:00N 36°00' W 005°17'713.3
2017-Sep-11 18:30N 35°58' W 005°25'9910.9
2017-Sep-11 09:26N 36°05' W 007°27'410.0
2017-Sep-11 09:00N 36°07' W 007°32'5 9.7
2017-Sep-11 08:30N 36°08' W 007°38'5 9.9
2017-Sep-11 08:00N 36°09' W 007°44'610.4
2017-Sep-11 07:25N 36°11' W 007°51'2410.7
2017-Sep-11 05:09N 36°17' W 008°20'210.6
2017-Sep-11 04:57N 36°18' W 008°23'710.5
2017-Sep-11 04:19N 36°19' W 008°31'310.6
2017-Sep-11 04:00N 36°20' W 008°35'610.9
2017-Sep-11 03:25N 36°22' W 008°42'3410.8
2017-Sep-11 00:18N 36°32' W 009°22'410.9
2017-Sep-10 23:54N 36°35' W 009°26'1211.0
2017-Sep-10 22:47N 36°44' W 009°36'7511.5
2017-Sep-10 16:14N 37°57' W 009°59'311.4
2017-Sep-10 16:00N 37°59' W 009°60'611.4
2017-Sep-10 15:30N 38°05' W 010°01'611.3
2017-Sep-10 15:00N 38°11' W 010°03'1111.2
2017-Sep-10 14:00N 38°22' W 010°06'611.5
2017-Sep-10 13:30N 38°27' W 010°08'611.8
2017-Sep-10 13:00N 38°33' W 010°09'1012.2
2017-Sep-10 12:11N 38°43' W 010°11'212.1
2017-Sep-10 12:00N 38°45' W 010°12'712.1
2017-Sep-10 11:27N 38°52' W 010°12'511.6
2017-Sep-10 10:59N 38°57' W 010°12'611.9
2017-Sep-10 10:27N 39°03' W 010°12'712.1
2017-Sep-10 09:55N 39°10' W 010°12'511.7
2017-Sep-10 09:30N 39°15' W 010°12'  
2017-Sep-07 13:58N 49°37' W 003°54'510.7
2017-Sep-07 13:30N 49°40' W 003°48'910.9
2017-Sep-07 12:38N 49°45' W 003°36'210.9
2017-Sep-07 12:28N 49°45' W 003°33'510.9
2017-Sep-07 12:00N 49°48' W 003°26'810.6
2017-Sep-07 11:17N 49°52' W 003°16'310.1
2017-Sep-07 11:00N 49°53' W 003°12'6 9.7
2017-Sep-07 10:25N 49°56' W 003°04'4 9.1
2017-Sep-07 10:00N 49°58' W 002°59'4 8.5
2017-Sep-07 09:30N 49°59' W 002°53'  
Track history (hours):
 
Tides and Currents Weather Stations Pressure Air Temp Water Temp Dewpoint Dewpoint Depression Visibility Wind Speed Wind Dir Waves Ship Positions

Epic Capri

Last reported at 2017-Sep-17 08:32 UTC. Time now 2017-Sep-25 20:40 UTC.
Position N 34°47' E 023°18'.
Warning: this ship's position is 8 days out of date.

Length 99 m; draft 5.6 m.

Type: Ship (hazmat cat B). MMSI: 256325000.

Date/timePositionNaut miles runAvg speedWind from/ knotsBaromVisibWave heightAir tempDewpointWater temp
2017-Sep-17 08:32N 34°47' E 023°18'1 9.7
2017-Sep-17 08:28N 34°47' E 023°18'4 9.7
2017-Sep-17 08:01N 34°48' E 023°12'5 9.6
2017-Sep-17 07:30N 34°49' E 023°07'5 9.4
2017-Sep-17 07:00N 34°50' E 023°01'20 9.5
2017-Sep-17 04:52N 34°54' E 022°37'9 9.6
2017-Sep-17 03:55N 34°56' E 022°26'5510.2
2017-Sep-16 22:32N 35°06' E 021°20'010.4
2017-Sep-16 22:30N 35°06' E 021°19'5010.1
2017-Sep-16 17:32N 35°17' E 020°19'0 9.7
2017-Sep-16 17:31N 35°17' E 020°19'5 9.4
2017-Sep-16 16:59N 35°18' E 020°13'5 9.5
2017-Sep-16 16:29N 35°19' E 020°08'5 9.7
2017-Sep-16 15:58N 35°20' E 020°01'16810.2
2017-Sep-15 23:27N 35°53' E 016°39'510.3
2017-Sep-15 23:00N 35°54' E 016°34'3810.0
2017-Sep-15 19:13N 36°01' E 015°47'2610.7
2017-Sep-15 16:47N 36°06' E 015°16'2110.7
2017-Sep-15 14:51N 36°11' E 014°51'410.7
2017-Sep-15 14:27N 36°12' E 014°46'510.8
2017-Sep-15 14:00N 36°14' E 014°40'510.9
2017-Sep-15 13:30N 36°16' E 014°34'610.8
2017-Sep-15 13:00N 36°18' E 014°28'510.9
2017-Sep-15 12:30N 36°20' E 014°21'510.9
2017-Sep-15 12:01N 36°21' E 014°15'611.2
2017-Sep-15 11:30N 36°23' E 014°08'511.1
2017-Sep-15 11:01N 36°25' E 014°02'510.8
2017-Sep-15 10:31N 36°27' E 013°55'510.7
2017-Sep-15 10:00N 36°29' E 013°49'510.6
2017-Sep-15 09:30N 36°31' E 013°43'510.5
2017-Sep-15 09:00N 36°33' E 013°37'710.5
2017-Sep-15 08:19N 36°35' E 013°28'410.7
2017-Sep-15 07:56N 36°36' E 013°24'510.7
2017-Sep-15 07:30N 36°38' E 013°18'610.6
2017-Sep-15 06:56N 36°40' E 013°11'510.6
2017-Sep-15 06:30N 36°41' E 013°06'510.6
2017-Sep-15 05:59N 36°43' E 012°60'510.7
2017-Sep-15 05:31N 36°45' E 012°53'710.7
2017-Sep-15 04:51N 36°47' E 012°45'410.8
2017-Sep-15 04:30N 36°49' E 012°41'610.9
2017-Sep-15 03:58N 36°51' E 012°34'510.8
2017-Sep-15 03:29N 36°53' E 012°28'510.8
2017-Sep-15 03:00N 36°54' E 012°22'510.7
2017-Sep-15 02:29N 36°56' E 012°15'510.6
2017-Sep-15 02:00N 36°58' E 012°09'2210.4
2017-Sep-14 23:53N 37°07' E 011°44'410.3
2017-Sep-14 23:30N 37°09' E 011°40'510.2
2017-Sep-14 23:00N 37°11' E 011°34'  
2017-Sep-11 19:17N 36°01' W 005°13'413.6
2017-Sep-11 19:00N 36°00' W 005°17'713.3
2017-Sep-11 18:30N 35°58' W 005°25'9910.9
2017-Sep-11 09:26N 36°05' W 007°27'410.0
2017-Sep-11 09:00N 36°07' W 007°32'5 9.7
2017-Sep-11 08:30N 36°08' W 007°38'5 9.9
2017-Sep-11 08:00N 36°09' W 007°44'610.4
2017-Sep-11 07:25N 36°11' W 007°51'2410.7
2017-Sep-11 05:09N 36°17' W 008°20'210.6
2017-Sep-11 04:57N 36°18' W 008°23'710.5
2017-Sep-11 04:19N 36°19' W 008°31'310.6
2017-Sep-11 04:00N 36°20' W 008°35'610.9
2017-Sep-11 03:25N 36°22' W 008°42'3410.8
2017-Sep-11 00:18N 36°32' W 009°22'410.9
2017-Sep-10 23:54N 36°35' W 009°26'1211.0
2017-Sep-10 22:47N 36°44' W 009°36'7511.5
2017-Sep-10 16:14N 37°57' W 009°59'311.4
2017-Sep-10 16:00N 37°59' W 009°60'611.4
2017-Sep-10 15:30N 38°05' W 010°01'611.3
2017-Sep-10 15:00N 38°11' W 010°03'1111.2
2017-Sep-10 14:00N 38°22' W 010°06'611.5
2017-Sep-10 13:30N 38°27' W 010°08'611.8
2017-Sep-10 13:00N 38°33' W 010°09'1012.2
2017-Sep-10 12:11N 38°43' W 010°11'212.1
2017-Sep-10 12:00N 38°45' W 010°12'712.1
2017-Sep-10 11:27N 38°52' W 010°12'511.6
2017-Sep-10 10:59N 38°57' W 010°12'611.9
2017-Sep-10 10:27N 39°03' W 010°12'712.1
2017-Sep-10 09:55N 39°10' W 010°12'511.7
2017-Sep-10 09:30N 39°15' W 010°12'  
2017-Sep-07 13:58N 49°37' W 003°54'510.7
2017-Sep-07 13:30N 49°40' W 003°48'910.9
2017-Sep-07 12:38N 49°45' W 003°36'210.9
2017-Sep-07 12:28N 49°45' W 003°33'510.9
2017-Sep-07 12:00N 49°48' W 003°26'810.6
2017-Sep-07 11:17N 49°52' W 003°16'310.1
2017-Sep-07 11:00N 49°53' W 003°12'6 9.7
2017-Sep-07 10:25N 49°56' W 003°04'4 9.1
2017-Sep-07 10:00N 49°58' W 002°59'4 8.5
2017-Sep-07 09:30N 49°59' W 002°53'  

Dump ship's entire track history